TimeEDT,TemperatureF,Dew PointF,Humidity,Sea Level PressureIn,VisibilityMPH,Wind Direction,Wind SpeedMPH,Gust SpeedMPH,PrecipitationIn,Events,Conditions,WindDirDegrees,DateUTC
12:53 AM,-9999,-9999,N/A,30.10,10.0,North,6.9,-,N/A,,Clear,10,2012-11-03 04:53:00
1:53 AM,-9999,-9999,N/A,30.08,10.0,North,5.8,-,N/A,,Clear,10,2012-11-03 05:53:00
2:53 AM,-9999,-9999,N/A,30.06,10.0,NNE,6.9,-,N/A,,Clear,20,2012-11-03 06:53:00
3:53 AM,-9999,-9999,N/A,30.06,10.0,NNE,8.1,-,N/A,,Clear,20,2012-11-03 07:53:00
4:53 AM,-9999,-9999,N/A,30.06,10.0,NNE,6.9,-,N/A,,Clear,20,2012-11-03 08:53:00
5:53 AM,-9999,-9999,N/A,30.06,10.0,NE,4.6,-,N/A,,Clear,40,2012-11-03 09:53:00
5:57 AM,71.6,62.6,73,30.06,10.0,NNE,4.6,-,N/A,,Scattered Clouds,30,2012-11-03 09:57:00
6:53 AM,71.6,62.1,72,30.07,10.0,NNE,6.9,-,N/A,,Scattered Clouds,20,2012-11-03 10:53:00
7:53 AM,71.6,62.1,72,30.09,10.0,NNE,5.8,-,N/A,,Scattered Clouds,30,2012-11-03 11:53:00
8:53 AM,71.6,62.1,72,30.12,10.0,NNE,5.8,-,N/A,,Scattered Clouds,30,2012-11-03 12:53:00
9:53 AM,75.2,61.0,61,30.12,10.0,NNE,11.5,-,N/A,,Scattered Clouds,20,2012-11-03 13:53:00
10:53 AM,77.0,61.0,58,30.14,10.0,NNE,11.5,-,N/A,,Scattered Clouds,20,2012-11-03 14:53:00
11:53 AM,77.0,60.1,56,30.13,10.0,NE,12.7,16.1,N/A,,Partly Cloudy,40,2012-11-03 15:53:00
12:53 PM,77.0,59.0,54,30.12,10.0,NNE,10.4,-,N/A,,Partly Cloudy,30,2012-11-03 16:53:00
1:53 PM,77.0,60.1,56,30.10,10.0,NNE,10.4,-,N/A,,Partly Cloudy,30,2012-11-03 17:53:00
2:53 PM,77.0,59.0,54,30.08,10.0,NE,8.1,-,N/A,,Partly Cloudy,40,2012-11-03 18:53:00
3:53 PM,77.0,60.1,56,30.06,10.0,NE,12.7,-,N/A,,Partly Cloudy,40,2012-11-03 19:53:00
4:53 PM,77.0,59.0,54,30.06,10.0,NE,10.4,-,N/A,,Clear,40,2012-11-03 20:53:00
5:53 PM,77.0,60.1,56,30.06,10.0,NNE,10.4,-,N/A,,Clear,30,2012-11-03 21:53:00
6:53 PM,73.4,55.9,54,30.07,10.0,NE,5.8,-,N/A,,Clear,50,2012-11-03 22:53:00
7:53 PM,73.4,55.0,52,30.08,10.0,NE,3.5,-,N/A,,Clear,40,2012-11-03 23:53:00
8:53 PM,73.4,60.1,63,30.09,10.0,NE,4.6,-,N/A,,Clear,40,2012-11-04 00:53:00
9:53 PM,73.4,60.1,63,30.10,10.0,NE,3.5,-,N/A,,Clear,50,2012-11-04 01:53:00
10:53 PM,-9999,-9999,N/A,30.11,10.0,ENE,3.5,-,N/A,,Clear,60,2012-11-04 02:53:00
11:53 PM,-9999,-9999,N/A,30.10,10.0,ENE,4.6,-,N/A,,Clear,60,2012-11-04 03:53:00